sensor_id;sensor_type;location;lat;lon;timestamp;P1;durP1;ratioP1;P2;durP2;ratioP2
10293;SDS011;5192;50.328;7.610;2023-12-20T00:01:07;1.20;;;1.00;;
10293;SDS011;5192;50.328;7.610;2023-12-20T00:03:33;1.00;;;1.00;;
10293;SDS011;5192;50.328;7.610;2023-12-20T00:06:00;1.13;;;1.00;;
10293;SDS011;5192;50.328;7.610;2023-12-20T00:08:29;1.10;;;1.00;;
10293;SDS011;5192;50.328;7.610;2023-12-20T00:10:58;1.03;;;0.93;;
10293;SDS011;5192;50.328;7.610;2023-12-20T00:13:25;1.20;;;1.10;;
10293;SDS011;5192;50.328;7.610;2023-12-20T00:15:53;0.90;;;0.90;;
10293;SDS011;5192;50.328;7.610;2023-12-20T00:18:22;1.13;;;0.93;;
10293;SDS011;5192;50.328;7.610;2023-12-20T00:20:48;0.80;;;0.80;;
10293;SDS011;5192;50.328;7.610;2023-12-20T00:23:14;1.57;;;1.10;;
10293;SDS011;5192;50.328;7.610;2023-12-20T00:25:40;0.80;;;0.80;;
10293;SDS011;5192;50.328;7.610;2023-12-20T00:28:09;1.00;;;0.90;;
10293;SDS011;5192;50.328;7.610;2023-12-20T00:30:38;1.10;;;1.00;;
10293;SDS011;5192;50.328;7.610;2023-12-20T00:33:07;1.67;;;0.90;;
10293;SDS011;5192;50.328;7.610;2023-12-20T00:35:35;1.03;;;0.80;;
10293;SDS011;5192;50.328;7.610;2023-12-20T00:38:02;1.17;;;0.80;;
10293;SDS011;5192;50.328;7.610;2023-12-20T00:40:30;0.80;;;0.80;;
10293;SDS011;5192;50.328;7.610;2023-12-20T00:42:57;0.80;;;0.80;;
10293;SDS011;5192;50.328;7.610;2023-12-20T00:45:26;0.97;;;0.80;;
10293;SDS011;5192;50.328;7.610;2023-12-20T00:47:52;0.73;;;0.73;;
10293;SDS011;5192;50.328;7.610;2023-12-20T00:50:21;0.70;;;0.70;;
10293;SDS011;5192;50.328;7.610;2023-12-20T00:52:49;0.97;;;0.87;;
10293;SDS011;5192;50.328;7.610;2023-12-20T00:55:18;1.03;;;0.93;;
10293;SDS011;5192;50.328;7.610;2023-12-20T00:57:46;0.80;;;0.80;;
10293;SDS011;5192;50.328;7.610;2023-12-20T01:00:15;0.80;;;0.80;;
10293;SDS011;5192;50.328;7.610;2023-12-20T01:02:44;1.37;;;0.80;;
10293;SDS011;5192;50.328;7.610;2023-12-20T01:05:15;1.20;;;1.00;;
10293;SDS011;5192;50.328;7.610;2023-12-20T01:07:42;1.63;;;1.00;;
10293;SDS011;5192;50.328;7.610;2023-12-20T01:10:11;0.87;;;0.87;;
10293;SDS011;5192;50.328;7.610;2023-12-20T01:12:38;0.80;;;0.80;;
10293;SDS011;5192;50.328;7.610;2023-12-20T01:15:07;0.87;;;0.87;;
10293;SDS011;5192;50.328;7.610;2023-12-20T01:17:33;1.40;;;0.73;;
10293;SDS011;5192;50.328;7.610;2023-12-20T01:20:00;1.03;;;0.73;;
10293;SDS011;5192;50.328;7.610;2023-12-20T01:22:28;0.70;;;0.70;;
10293;SDS011;5192;50.328;7.610;2023-12-20T01:24:56;0.80;;;0.80;;
10293;SDS011;5192;50.328;7.610;2023-12-20T01:27:23;0.70;;;0.70;;
10293;SDS011;5192;50.328;7.610;2023-12-20T01:29:51;1.03;;;0.80;;
10293;SDS011;5192;50.328;7.610;2023-12-20T01:32:20;0.63;;;0.63;;
10293;SDS011;5192;50.328;7.610;2023-12-20T01:34:49;1.17;;;0.70;;
10293;SDS011;5192;50.328;7.610;2023-12-20T01:37:17;1.57;;;0.80;;
10293;SDS011;5192;50.328;7.610;2023-12-20T01:39:44;0.70;;;0.70;;
10293;SDS011;5192;50.328;7.610;2023-12-20T01:42:13;1.30;;;0.90;;
10293;SDS011;5192;50.328;7.610;2023-12-20T01:44:40;1.80;;;0.90;;
10293;SDS011;5192;50.328;7.610;2023-12-20T01:47:07;0.60;;;0.60;;
10293;SDS011;5192;50.328;7.610;2023-12-20T01:49:36;0.87;;;0.80;;
10293;SDS011;5192;50.328;7.610;2023-12-20T01:52:04;0.60;;;0.60;;
10293;SDS011;5192;50.328;7.610;2023-12-20T01:54:32;0.77;;;0.77;;
10293;SDS011;5192;50.328;7.610;2023-12-20T01:56:59;0.70;;;0.63;;
10293;SDS011;5192;50.328;7.610;2023-12-20T01:59:27;0.70;;;0.70;;
10293;SDS011;5192;50.328;7.610;2023-12-20T02:01:55;1.70;;;0.90;;
10293;SDS011;5192;50.328;7.610;2023-12-20T02:04:23;0.70;;;0.70;;
10293;SDS011;5192;50.328;7.610;2023-12-20T02:06:52;1.00;;;0.80;;
10293;SDS011;5192;50.328;7.610;2023-12-20T02:09:23;0.70;;;0.70;;
10293;SDS011;5192;50.328;7.610;2023-12-20T02:11:52;1.00;;;0.90;;
10293;SDS011;5192;50.328;7.610;2023-12-20T02:14:22;0.80;;;0.80;;
10293;SDS011;5192;50.328;7.610;2023-12-20T02:16:49;0.60;;;0.60;;
10293;SDS011;5192;50.328;7.610;2023-12-20T02:19:17;1.17;;;0.90;;
10293;SDS011;5192;50.328;7.610;2023-12-20T02:21:45;0.80;;;0.80;;
10293;SDS011;5192;50.328;7.610;2023-12-20T02:24:12;0.93;;;0.83;;
10293;SDS011;5192;50.328;7.610;2023-12-20T02:26:39;0.80;;;0.80;;
10293;SDS011;5192;50.328;7.610;2023-12-20T02:29:08;1.37;;;0.80;;
10293;SDS011;5192;50.328;7.610;2023-12-20T02:31:36;1.47;;;0.90;;
10293;SDS011;5192;50.328;7.610;2023-12-20T02:34:04;1.07;;;0.97;;
10293;SDS011;5192;50.328;7.610;2023-12-20T02:36:33;1.10;;;1.00;;
10293;SDS011;5192;50.328;7.610;2023-12-20T02:39:02;1.73;;;1.30;;
10293;SDS011;5192;50.328;7.610;2023-12-20T02:41:29;1.23;;;1.13;;
10293;SDS011;5192;50.328;7.610;2023-12-20T02:43:56;0.90;;;0.90;;
10293;SDS011;5192;50.328;7.610;2023-12-20T02:46:28;1.40;;;1.10;;
10293;SDS011;5192;50.328;7.610;2023-12-20T02:48:59;1.10;;;1.00;;
10293;SDS011;5192;50.328;7.610;2023-12-20T02:51:26;1.40;;;1.30;;
10293;SDS011;5192;50.328;7.610;2023-12-20T02:53:55;1.30;;;1.20;;
10293;SDS011;5192;50.328;7.610;2023-12-20T02:56:22;1.20;;;1.10;;
10293;SDS011;5192;50.328;7.610;2023-12-20T02:58:50;1.30;;;1.00;;
10293;SDS011;5192;50.328;7.610;2023-12-20T03:01:17;2.60;;;1.10;;
10293;SDS011;5192;50.328;7.610;2023-12-20T03:03:44;1.60;;;1.20;;
10293;SDS011;5192;50.328;7.610;2023-12-20T03:06:11;1.60;;;1.50;;
10293;SDS011;5192;50.328;7.610;2023-12-20T03:08:42;1.30;;;1.20;;
10293;SDS011;5192;50.328;7.610;2023-12-20T03:11:10;1.57;;;1.47;;
10293;SDS011;5192;50.328;7.610;2023-12-20T03:13:38;1.40;;;1.30;;
10293;SDS011;5192;50.328;7.610;2023-12-20T03:16:12;1.80;;;1.40;;
10293;SDS011;5192;50.328;7.610;2023-12-20T03:18:49;1.57;;;1.30;;
10293;SDS011;5192;50.328;7.610;2023-12-20T03:21:17;1.70;;;1.60;;
10293;SDS011;5192;50.328;7.610;2023-12-20T03:23:45;2.00;;;1.80;;
10293;SDS011;5192;50.328;7.610;2023-12-20T03:26:11;2.20;;;1.77;;
10293;SDS011;5192;50.328;7.610;2023-12-20T03:28:40;2.10;;;1.67;;
10293;SDS011;5192;50.328;7.610;2023-12-20T03:31:09;3.80;;;2.03;;
10293;SDS011;5192;50.328;7.610;2023-12-20T03:33:37;2.10;;;1.70;;
10293;SDS011;5192;50.328;7.610;2023-12-20T03:36:09;3.20;;;2.13;;
10293;SDS011;5192;50.328;7.610;2023-12-20T03:38:40;3.60;;;2.10;;
10293;SDS011;5192;50.328;7.610;2023-12-20T03:41:13;2.17;;;1.70;;
10293;SDS011;5192;50.328;7.610;2023-12-20T03:43:41;5.77;;;2.33;;
10293;SDS011;5192;50.328;7.610;2023-12-20T03:46:09;3.27;;;1.70;;
10293;SDS011;5192;50.328;7.610;2023-12-20T03:48:37;3.37;;;2.10;;
10293;SDS011;5192;50.328;7.610;2023-12-20T03:51:05;2.77;;;1.40;;
10293;SDS011;5192;50.328;7.610;2023-12-20T03:53:32;6.07;;;1.50;;
10293;SDS011;5192;50.328;7.610;2023-12-20T03:55:58;5.43;;;1.70;;
10293;SDS011;5192;50.328;7.610;2023-12-20T03:58:24;3.43;;;1.57;;
10293;SDS011;5192;50.328;7.610;2023-12-20T04:00:51;2.30;;;1.20;;
10293;SDS011;5192;50.328;7.610;2023-12-20T04:03:19;5.97;;;1.70;;
10293;SDS011;5192;50.328;7.610;2023-12-20T04:05:48;4.10;;;1.63;;
10293;SDS011;5192;50.328;7.610;2023-12-20T04:08:15;7.80;;;1.77;;
10293;SDS011;5192;50.328;7.610;2023-12-20T04:10:44;1.83;;;1.03;;
10293;SDS011;5192;50.328;7.610;2023-12-20T04:13:14;7.13;;;1.83;;
10293;SDS011;5192;50.328;7.610;2023-12-20T04:15:45;2.80;;;1.27;;
10293;SDS011;5192;50.328;7.610;2023-12-20T04:18:11;4.60;;;1.67;;
10293;SDS011;5192;50.328;7.610;2023-12-20T04:20:40;5.17;;;1.57;;
10293;SDS011;5192;50.328;7.610;2023-12-20T04:23:09;2.40;;;1.33;;
10293;SDS011;5192;50.328;7.610;2023-12-20T04:25:35;4.10;;;1.50;;
10293;SDS011;5192;50.328;7.610;2023-12-20T04:28:01;6.23;;;1.60;;
10293;SDS011;5192;50.328;7.610;2023-12-20T04:30:30;4.37;;;1.70;;
10293;SDS011;5192;50.328;7.610;2023-12-20T04:32:59;6.90;;;1.87;;
10293;SDS011;5192;50.328;7.610;2023-12-20T04:35:26;11.33;;;1.80;;
10293;SDS011;5192;50.328;7.610;2023-12-20T04:37:54;4.77;;;1.60;;
10293;SDS011;5192;50.328;7.610;2023-12-20T04:40:22;4.97;;;1.70;;
10293;SDS011;5192;50.328;7.610;2023-12-20T04:42:51;4.53;;;1.83;;
10293;SDS011;5192;50.328;7.610;2023-12-20T04:45:19;2.67;;;1.60;;
10293;SDS011;5192;50.328;7.610;2023-12-20T04:47:50;5.33;;;1.50;;
10293;SDS011;5192;50.328;7.610;2023-12-20T04:50:17;5.10;;;1.80;;
10293;SDS011;5192;50.328;7.610;2023-12-20T04:52:45;3.50;;;1.70;;
10293;SDS011;5192;50.328;7.610;2023-12-20T04:55:13;4.77;;;1.67;;
10293;SDS011;5192;50.328;7.610;2023-12-20T04:57:41;8.23;;;1.70;;
10293;SDS011;5192;50.328;7.610;2023-12-20T05:00:09;5.77;;;1.97;;
10293;SDS011;5192;50.328;7.610;2023-12-20T05:02:38;4.70;;;1.87;;
10293;SDS011;5192;50.328;7.610;2023-12-20T05:05:07;3.00;;;1.63;;
10293;SDS011;5192;50.328;7.610;2023-12-20T05:07:33;3.33;;;1.80;;
10293;SDS011;5192;50.328;7.610;2023-12-20T05:10:03;2.73;;;1.73;;
10293;SDS011;5192;50.328;7.610;2023-12-20T05:12:35;4.13;;;1.80;;
10293;SDS011;5192;50.328;7.610;2023-12-20T05:15:02;3.37;;;1.73;;
10293;SDS011;5192;50.328;7.610;2023-12-20T05:17:33;4.63;;;1.80;;
10293;SDS011;5192;50.328;7.610;2023-12-20T05:20:01;4.30;;;1.53;;
10293;SDS011;5192;50.328;7.610;2023-12-20T05:22:33;4.50;;;1.50;;
10293;SDS011;5192;50.328;7.610;2023-12-20T05:25:01;2.77;;;1.27;;
10293;SDS011;5192;50.328;7.610;2023-12-20T05:27:29;5.27;;;1.87;;
10293;SDS011;5192;50.328;7.610;2023-12-20T05:29:58;3.03;;;1.37;;
10293;SDS011;5192;50.328;7.610;2023-12-20T05:32:26;4.47;;;1.77;;
10293;SDS011;5192;50.328;7.610;2023-12-20T05:34:55;2.77;;;1.60;;
10293;SDS011;5192;50.328;7.610;2023-12-20T05:37:21;4.87;;;1.60;;
10293;SDS011;5192;50.328;7.610;2023-12-20T05:39:50;4.40;;;1.93;;
10293;SDS011;5192;50.328;7.610;2023-12-20T05:42:19;3.77;;;1.47;;
10293;SDS011;5192;50.328;7.610;2023-12-20T05:44:46;5.50;;;2.00;;
10293;SDS011;5192;50.328;7.610;2023-12-20T05:47:13;3.13;;;1.50;;
10293;SDS011;5192;50.328;7.610;2023-12-20T05:49:47;3.37;;;1.80;;
10293;SDS011;5192;50.328;7.610;2023-12-20T05:52:14;3.73;;;1.50;;
10293;SDS011;5192;50.328;7.610;2023-12-20T05:54:43;3.80;;;1.40;;
10293;SDS011;5192;50.328;7.610;2023-12-20T05:57:10;3.33;;;1.57;;
10293;SDS011;5192;50.328;7.610;2023-12-20T05:59:39;4.23;;;1.47;;
10293;SDS011;5192;50.328;7.610;2023-12-20T06:02:08;3.33;;;1.23;;
10293;SDS011;5192;50.328;7.610;2023-12-20T06:04:35;3.10;;;1.70;;
10293;SDS011;5192;50.328;7.610;2023-12-20T06:07:03;4.43;;;1.77;;
10293;SDS011;5192;50.328;7.610;2023-12-20T06:09:29;2.87;;;1.50;;
10293;SDS011;5192;50.328;7.610;2023-12-20T06:11:56;4.90;;;1.47;;
10293;SDS011;5192;50.328;7.610;2023-12-20T06:14:24;2.17;;;1.30;;
10293;SDS011;5192;50.328;7.610;2023-12-20T06:16:51;5.33;;;2.17;;
10293;SDS011;5192;50.328;7.610;2023-12-20T06:19:18;4.27;;;1.60;;
10293;SDS011;5192;50.328;7.610;2023-12-20T06:21:47;3.13;;;1.70;;
10293;SDS011;5192;50.328;7.610;2023-12-20T06:24:15;4.83;;;2.50;;
10293;SDS011;5192;50.328;7.610;2023-12-20T06:26:41;4.37;;;1.90;;
10293;SDS011;5192;50.328;7.610;2023-12-20T06:29:08;4.33;;;1.60;;
10293;SDS011;5192;50.328;7.610;2023-12-20T06:31:37;3.53;;;1.70;;
10293;SDS011;5192;50.328;7.610;2023-12-20T06:34:05;5.27;;;2.17;;
10293;SDS011;5192;50.328;7.610;2023-12-20T06:36:32;4.87;;;1.43;;
10293;SDS011;5192;50.328;7.610;2023-12-20T06:39:00;3.47;;;1.70;;
10293;SDS011;5192;50.328;7.610;2023-12-20T06:41:26;7.30;;;1.50;;
10293;SDS011;5192;50.328;7.610;2023-12-20T06:43:54;4.23;;;1.80;;
10293;SDS011;5192;50.328;7.610;2023-12-20T06:46:21;3.30;;;1.50;;
10293;SDS011;5192;50.328;7.610;2023-12-20T06:48:50;1.97;;;1.23;;
10293;SDS011;5192;50.328;7.610;2023-12-20T06:51:16;6.67;;;1.83;;
10293;SDS011;5192;50.328;7.610;2023-12-20T06:53:46;5.27;;;1.60;;
10293;SDS011;5192;50.328;7.610;2023-12-20T06:56:13;5.87;;;1.67;;
10293;SDS011;5192;50.328;7.610;2023-12-20T06:58:40;3.13;;;1.30;;
10293;SDS011;5192;50.328;7.610;2023-12-20T07:01:12;6.10;;;2.40;;
10293;SDS011;5192;50.328;7.610;2023-12-20T07:03:40;6.07;;;2.07;;
10293;SDS011;5192;50.328;7.610;2023-12-20T07:06:08;3.80;;;1.60;;
10293;SDS011;5192;50.328;7.610;2023-12-20T07:08:36;7.07;;;2.20;;
10293;SDS011;5192;50.328;7.610;2023-12-20T07:11:03;4.27;;;1.83;;
10293;SDS011;5192;50.328;7.610;2023-12-20T07:13:32;3.57;;;1.30;;
10293;SDS011;5192;50.328;7.610;2023-12-20T07:16:01;3.80;;;1.60;;
10293;SDS011;5192;50.328;7.610;2023-12-20T07:18:28;3.77;;;1.90;;
10293;SDS011;5192;50.328;7.610;2023-12-20T07:20:56;1.80;;;1.40;;
10293;SDS011;5192;50.328;7.610;2023-12-20T07:23:23;4.53;;;2.10;;
10293;SDS011;5192;50.328;7.610;2023-12-20T07:25:53;5.73;;;1.80;;
10293;SDS011;5192;50.328;7.610;2023-12-20T07:28:21;11.27;;;3.03;;
10293;SDS011;5192;50.328;7.610;2023-12-20T07:30:49;6.30;;;2.10;;
10293;SDS011;5192;50.328;7.610;2023-12-20T07:33:17;7.57;;;1.73;;
10293;SDS011;5192;50.328;7.610;2023-12-20T07:35:44;6.57;;;1.73;;
10293;SDS011;5192;50.328;7.610;2023-12-20T07:38:13;4.53;;;1.43;;
10293;SDS011;5192;50.328;7.610;2023-12-20T07:40:40;4.27;;;1.83;;
10293;SDS011;5192;50.328;7.610;2023-12-20T07:43:07;4.93;;;1.87;;
10293;SDS011;5192;50.328;7.610;2023-12-20T07:45:34;6.13;;;1.53;;
10293;SDS011;5192;50.328;7.610;2023-12-20T07:48:04;5.70;;;1.77;;
10293;SDS011;5192;50.328;7.610;2023-12-20T07:50:32;6.13;;;1.50;;
10293;SDS011;5192;50.328;7.610;2023-12-20T07:52:59;6.17;;;1.93;;
10293;SDS011;5192;50.328;7.610;2023-12-20T07:55:27;6.23;;;1.80;;
10293;SDS011;5192;50.328;7.610;2023-12-20T07:58:00;4.70;;;1.80;;
10293;SDS011;5192;50.328;7.610;2023-12-20T08:00:26;5.37;;;1.70;;
10293;SDS011;5192;50.328;7.610;2023-12-20T08:02:54;4.97;;;1.53;;
10293;SDS011;5192;50.328;7.610;2023-12-20T08:05:22;3.33;;;1.60;;
10293;SDS011;5192;50.328;7.610;2023-12-20T08:07:50;4.67;;;1.70;;
10293;SDS011;5192;50.328;7.610;2023-12-20T08:10:18;3.80;;;1.50;;
10293;SDS011;5192;50.328;7.610;2023-12-20T08:12:46;5.73;;;1.57;;
10293;SDS011;5192;50.328;7.610;2023-12-20T08:15:13;9.10;;;1.87;;
10293;SDS011;5192;50.328;7.610;2023-12-20T08:17:40;3.20;;;1.47;;
10293;SDS011;5192;50.328;7.610;2023-12-20T08:20:08;4.97;;;1.93;;
10293;SDS011;5192;50.328;7.610;2023-12-20T08:22:35;8.53;;;2.10;;
10293;SDS011;5192;50.328;7.610;2023-12-20T08:25:03;2.93;;;1.80;;
10293;SDS011;5192;50.328;7.610;2023-12-20T08:27:29;6.43;;;2.17;;
10293;SDS011;5192;50.328;7.610;2023-12-20T08:29:57;5.67;;;1.87;;
10293;SDS011;5192;50.328;7.610;2023-12-20T08:32:29;6.90;;;2.33;;
10293;SDS011;5192;50.328;7.610;2023-12-20T08:34:58;6.50;;;2.00;;
10293;SDS011;5192;50.328;7.610;2023-12-20T08:37:26;4.60;;;1.80;;
10293;SDS011;5192;50.328;7.610;2023-12-20T08:39:54;3.60;;;1.77;;
10293;SDS011;5192;50.328;7.610;2023-12-20T08:42:23;4.23;;;1.73;;
10293;SDS011;5192;50.328;7.610;2023-12-20T08:44:52;2.60;;;1.63;;
10293;SDS011;5192;50.328;7.610;2023-12-20T08:47:19;7.97;;;2.00;;
10293;SDS011;5192;50.328;7.610;2023-12-20T08:49:47;7.07;;;2.43;;
10293;SDS011;5192;50.328;7.610;2023-12-20T08:52:15;4.87;;;2.30;;
10293;SDS011;5192;50.328;7.610;2023-12-20T08:54:44;5.73;;;2.47;;
10293;SDS011;5192;50.328;7.610;2023-12-20T08:57:11;6.23;;;2.50;;
10293;SDS011;5192;50.328;7.610;2023-12-20T08:59:38;6.33;;;2.33;;
10293;SDS011;5192;50.328;7.610;2023-12-20T09:02:05;9.10;;;2.17;;
10293;SDS011;5192;50.328;7.610;2023-12-20T09:04:33;3.47;;;2.07;;
10293;SDS011;5192;50.328;7.610;2023-12-20T09:07:01;4.43;;;1.93;;
10293;SDS011;5192;50.328;7.610;2023-12-20T09:09:28;5.27;;;2.40;;
10293;SDS011;5192;50.328;7.610;2023-12-20T09:11:55;4.13;;;2.30;;
10293;SDS011;5192;50.328;7.610;2023-12-20T09:14:22;7.80;;;2.70;;
10293;SDS011;5192;50.328;7.610;2023-12-20T09:16:49;7.03;;;2.33;;
10293;SDS011;5192;50.328;7.610;2023-12-20T09:19:18;6.27;;;2.10;;
10293;SDS011;5192;50.328;7.610;2023-12-20T09:21:45;5.57;;;2.20;;
10293;SDS011;5192;50.328;7.610;2023-12-20T09:24:12;7.77;;;2.10;;
10293;SDS011;5192;50.328;7.610;2023-12-20T09:26:39;6.73;;;2.43;;
10293;SDS011;5192;50.328;7.610;2023-12-20T09:29:07;4.07;;;2.27;;
10293;SDS011;5192;50.328;7.610;2023-12-20T09:31:36;4.93;;;2.80;;
10293;SDS011;5192;50.328;7.610;2023-12-20T09:34:03;7.17;;;2.40;;
10293;SDS011;5192;50.328;7.610;2023-12-20T09:36:29;10.93;;;1.97;;
10293;SDS011;5192;50.328;7.610;2023-12-20T09:38:56;6.73;;;2.30;;
10293;SDS011;5192;50.328;7.610;2023-12-20T09:41:22;7.60;;;2.40;;
10293;SDS011;5192;50.328;7.610;2023-12-20T09:43:50;7.50;;;2.40;;
10293;SDS011;5192;50.328;7.610;2023-12-20T09:46:17;4.83;;;2.40;;
10293;SDS011;5192;50.328;7.610;2023-12-20T09:48:47;6.93;;;2.73;;
10293;SDS011;5192;50.328;7.610;2023-12-20T09:51:13;5.27;;;2.10;;
10293;SDS011;5192;50.328;7.610;2023-12-20T09:53:40;8.20;;;2.60;;
10293;SDS011;5192;50.328;7.610;2023-12-20T09:56:08;5.50;;;2.20;;
10293;SDS011;5192;50.328;7.610;2023-12-20T09:58:37;6.33;;;2.37;;
10293;SDS011;5192;50.328;7.610;2023-12-20T10:01:06;8.07;;;2.40;;
10293;SDS011;5192;50.328;7.610;2023-12-20T10:03:36;6.50;;;2.20;;
10293;SDS011;5192;50.328;7.610;2023-12-20T10:06:05;5.93;;;2.00;;
10293;SDS011;5192;50.328;7.610;2023-12-20T10:08:33;3.73;;;2.20;;
10293;SDS011;5192;50.328;7.610;2023-12-20T10:11:01;5.37;;;1.90;;
10293;SDS011;5192;50.328;7.610;2023-12-20T10:13:30;4.47;;;1.87;;
10293;SDS011;5192;50.328;7.610;2023-12-20T10:15:57;8.70;;;2.13;;
10293;SDS011;5192;50.328;7.610;2023-12-20T10:18:26;5.00;;;1.93;;
10293;SDS011;5192;50.328;7.610;2023-12-20T10:20:57;6.60;;;1.80;;
10293;SDS011;5192;50.328;7.610;2023-12-20T10:23:26;4.00;;;1.80;;
10293;SDS011;5192;50.328;7.610;2023-12-20T10:25:56;6.50;;;2.20;;
10293;SDS011;5192;50.328;7.610;2023-12-20T10:28:28;7.10;;;2.40;;
10293;SDS011;5192;50.328;7.610;2023-12-20T10:31:01;4.77;;;1.73;;
10293;SDS011;5192;50.328;7.610;2023-12-20T10:33:28;5.93;;;2.00;;
10293;SDS011;5192;50.328;7.610;2023-12-20T10:35:55;5.33;;;1.97;;
10293;SDS011;5192;50.328;7.610;2023-12-20T10:38:23;5.30;;;1.90;;
10293;SDS011;5192;50.328;7.610;2023-12-20T10:40:53;5.80;;;2.03;;
10293;SDS011;5192;50.328;7.610;2023-12-20T10:43:21;6.83;;;2.20;;
10293;SDS011;5192;50.328;7.610;2023-12-20T10:45:48;4.70;;;2.07;;
10293;SDS011;5192;50.328;7.610;2023-12-20T10:48:21;10.83;;;2.43;;
10293;SDS011;5192;50.328;7.610;2023-12-20T10:50:58;8.97;;;3.57;;
10293;SDS011;5192;50.328;7.610;2023-12-20T10:53:26;4.50;;;1.80;;
10293;SDS011;5192;50.328;7.610;2023-12-20T10:55:55;5.90;;;2.50;;
10293;SDS011;5192;50.328;7.610;2023-12-20T10:58:26;6.10;;;2.53;;
10293;SDS011;5192;50.328;7.610;2023-12-20T11:00:57;6.90;;;2.20;;
10293;SDS011;5192;50.328;7.610;2023-12-20T11:03:27;6.10;;;2.20;;
10293;SDS011;5192;50.328;7.610;2023-12-20T11:14:20;5.73;;;1.97;;
10293;SDS011;5192;50.328;7.610;2023-12-20T11:16:48;8.37;;;1.93;;
10293;SDS011;5192;50.328;7.610;2023-12-20T11:19:16;7.33;;;2.63;;
10293;SDS011;5192;50.328;7.610;2023-12-20T11:21:44;5.23;;;1.80;;
10293;SDS011;5192;50.328;7.610;2023-12-20T11:24:15;6.40;;;2.93;;
10293;SDS011;5192;50.328;7.610;2023-12-20T11:26:46;6.03;;;2.00;;
10293;SDS011;5192;50.328;7.610;2023-12-20T11:37:41;8.10;;;2.27;;
10293;SDS011;5192;50.328;7.610;2023-12-20T11:40:14;5.57;;;2.37;;
10293;SDS011;5192;50.328;7.610;2023-12-20T11:42:45;4.40;;;2.00;;
10293;SDS011;5192;50.328;7.610;2023-12-20T11:45:15;7.53;;;2.60;;
10293;SDS011;5192;50.328;7.610;2023-12-20T11:47:46;5.23;;;2.13;;
10293;SDS011;5192;50.328;7.610;2023-12-20T11:50:24;5.63;;;1.97;;
10293;SDS011;5192;50.328;7.610;2023-12-20T11:52:51;6.77;;;2.27;;
10293;SDS011;5192;50.328;7.610;2023-12-20T11:55:22;4.63;;;2.20;;
10293;SDS011;5192;50.328;7.610;2023-12-20T11:57:52;7.90;;;2.33;;
10293;SDS011;5192;50.328;7.610;2023-12-20T12:00:20;6.73;;;2.00;;
10293;SDS011;5192;50.328;7.610;2023-12-20T12:02:58;5.87;;;2.20;;
10293;SDS011;5192;50.328;7.610;2023-12-20T12:05:25;3.70;;;1.87;;
10293;SDS011;5192;50.328;7.610;2023-12-20T12:07:53;5.53;;;2.00;;
10293;SDS011;5192;50.328;7.610;2023-12-20T12:10:20;4.33;;;2.10;;
10293;SDS011;5192;50.328;7.610;2023-12-20T12:12:49;4.67;;;1.90;;
10293;SDS011;5192;50.328;7.610;2023-12-20T12:15:16;6.37;;;2.67;;
10293;SDS011;5192;50.328;7.610;2023-12-20T12:17:56;6.90;;;2.13;;
10293;SDS011;5192;50.328;7.610;2023-12-20T12:20:24;8.57;;;2.50;;
10293;SDS011;5192;50.328;7.610;2023-12-20T12:23:10;3.83;;;2.10;;
10293;SDS011;5192;50.328;7.610;2023-12-20T12:25:37;6.97;;;2.40;;
10293;SDS011;5192;50.328;7.610;2023-12-20T12:28:04;4.90;;;2.40;;
10293;SDS011;5192;50.328;7.610;2023-12-20T12:30:33;6.57;;;2.20;;
10293;SDS011;5192;50.328;7.610;2023-12-20T12:33:01;7.53;;;2.37;;
10293;SDS011;5192;50.328;7.610;2023-12-20T12:35:29;3.93;;;2.03;;
10293;SDS011;5192;50.328;7.610;2023-12-20T12:37:58;5.70;;;2.90;;
10293;SDS011;5192;50.328;7.610;2023-12-20T12:40:29;8.53;;;2.43;;
10293;SDS011;5192;50.328;7.610;2023-12-20T12:42:58;5.63;;;2.30;;
10293;SDS011;5192;50.328;7.610;2023-12-20T12:45:25;4.50;;;2.30;;
10293;SDS011;5192;50.328;7.610;2023-12-20T12:47:53;3.23;;;2.07;;
10293;SDS011;5192;50.328;7.610;2023-12-20T12:50:21;4.93;;;2.40;;
10293;SDS011;5192;50.328;7.610;2023-12-20T12:52:49;6.03;;;2.43;;
10293;SDS011;5192;50.328;7.610;2023-12-20T12:55:17;7.63;;;2.70;;
10293;SDS011;5192;50.328;7.610;2023-12-20T12:57:44;7.57;;;2.43;;
10293;SDS011;5192;50.328;7.610;2023-12-20T13:00:13;6.50;;;2.97;;
10293;SDS011;5192;50.328;7.610;2023-12-20T13:02:41;7.30;;;2.70;;
10293;SDS011;5192;50.328;7.610;2023-12-20T13:05:10;11.40;;;2.60;;
10293;SDS011;5192;50.328;7.610;2023-12-20T13:07:37;6.97;;;2.93;;
10293;SDS011;5192;50.328;7.610;2023-12-20T13:10:06;7.37;;;2.70;;
10293;SDS011;5192;50.328;7.610;2023-12-20T13:12:33;5.97;;;2.90;;
10293;SDS011;5192;50.328;7.610;2023-12-20T13:15:02;5.30;;;2.20;;
10293;SDS011;5192;50.328;7.610;2023-12-20T13:17:30;3.93;;;1.93;;
10293;SDS011;5192;50.328;7.610;2023-12-20T13:19:58;5.10;;;2.37;;
10293;SDS011;5192;50.328;7.610;2023-12-20T13:22:25;10.93;;;3.20;;
10293;SDS011;5192;50.328;7.610;2023-12-20T13:24:53;5.07;;;2.30;;
10293;SDS011;5192;50.328;7.610;2023-12-20T13:27:20;6.50;;;2.60;;
10293;SDS011;5192;50.328;7.610;2023-12-20T13:29:48;4.57;;;2.37;;
10293;SDS011;5192;50.328;7.610;2023-12-20T13:32:16;5.53;;;2.17;;
10293;SDS011;5192;50.328;7.610;2023-12-20T13:34:46;7.27;;;2.40;;
10293;SDS011;5192;50.328;7.610;2023-12-20T13:37:14;5.77;;;2.23;;
10293;SDS011;5192;50.328;7.610;2023-12-20T13:39:43;6.70;;;2.80;;
10293;SDS011;5192;50.328;7.610;2023-12-20T13:42:09;5.00;;;2.60;;
10293;SDS011;5192;50.328;7.610;2023-12-20T13:44:37;8.70;;;2.63;;
10293;SDS011;5192;50.328;7.610;2023-12-20T13:47:04;6.40;;;2.27;;
10293;SDS011;5192;50.328;7.610;2023-12-20T13:49:32;4.40;;;2.33;;
10293;SDS011;5192;50.328;7.610;2023-12-20T13:52:03;5.70;;;2.67;;
10293;SDS011;5192;50.328;7.610;2023-12-20T13:54:31;7.93;;;2.60;;
10293;SDS011;5192;50.328;7.610;2023-12-20T13:56:58;7.43;;;2.30;;
10293;SDS011;5192;50.328;7.610;2023-12-20T13:59:25;4.87;;;2.23;;
10293;SDS011;5192;50.328;7.610;2023-12-20T14:01:53;7.50;;;3.10;;
10293;SDS011;5192;50.328;7.610;2023-12-20T14:04:22;9.90;;;2.60;;
10293;SDS011;5192;50.328;7.610;2023-12-20T14:06:49;10.17;;;2.80;;
10293;SDS011;5192;50.328;7.610;2023-12-20T14:09:17;6.27;;;2.80;;
10293;SDS011;5192;50.328;7.610;2023-12-20T14:11:43;5.57;;;2.37;;
10293;SDS011;5192;50.328;7.610;2023-12-20T14:14:11;6.03;;;2.30;;
10293;SDS011;5192;50.328;7.610;2023-12-20T14:16:40;10.30;;;2.53;;
10293;SDS011;5192;50.328;7.610;2023-12-20T14:19:10;4.40;;;2.30;;
10293;SDS011;5192;50.328;7.610;2023-12-20T14:21:39;5.43;;;1.93;;
10293;SDS011;5192;50.328;7.610;2023-12-20T14:24:07;7.53;;;2.60;;
10293;SDS011;5192;50.328;7.610;2023-12-20T14:26:35;8.73;;;1.87;;
10293;SDS011;5192;50.328;7.610;2023-12-20T14:29:06;5.57;;;2.03;;
10293;SDS011;5192;50.328;7.610;2023-12-20T14:31:34;5.73;;;2.30;;
10293;SDS011;5192;50.328;7.610;2023-12-20T14:34:02;5.23;;;1.90;;
10293;SDS011;5192;50.328;7.610;2023-12-20T14:36:29;5.77;;;1.80;;
10293;SDS011;5192;50.328;7.610;2023-12-20T14:38:58;4.53;;;1.80;;
10293;SDS011;5192;50.328;7.610;2023-12-20T14:41:25;4.97;;;2.00;;
10293;SDS011;5192;50.328;7.610;2023-12-20T14:43:54;5.43;;;1.77;;
10293;SDS011;5192;50.328;7.610;2023-12-20T14:46:21;5.80;;;1.80;;
10293;SDS011;5192;50.328;7.610;2023-12-20T14:48:50;9.87;;;2.30;;
10293;SDS011;5192;50.328;7.610;2023-12-20T14:51:19;8.67;;;2.57;;
10293;SDS011;5192;50.328;7.610;2023-12-20T14:53:46;4.53;;;1.77;;
10293;SDS011;5192;50.328;7.610;2023-12-20T14:56:13;5.03;;;1.87;;
10293;SDS011;5192;50.328;7.610;2023-12-20T14:58:42;7.10;;;2.13;;
10293;SDS011;5192;50.328;7.610;2023-12-20T15:01:09;7.13;;;1.63;;
10293;SDS011;5192;50.328;7.610;2023-12-20T15:03:37;5.47;;;1.50;;
10293;SDS011;5192;50.328;7.610;2023-12-20T15:06:05;5.13;;;1.83;;
10293;SDS011;5192;50.328;7.610;2023-12-20T15:08:33;4.63;;;1.70;;
10293;SDS011;5192;50.328;7.610;2023-12-20T15:11:03;5.20;;;1.77;;
10293;SDS011;5192;50.328;7.610;2023-12-20T15:13:30;5.03;;;2.30;;
10293;SDS011;5192;50.328;7.610;2023-12-20T15:15:59;5.20;;;1.97;;
10293;SDS011;5192;50.328;7.610;2023-12-20T15:18:25;3.77;;;1.60;;
10293;SDS011;5192;50.328;7.610;2023-12-20T15:20:54;5.10;;;1.43;;
10293;SDS011;5192;50.328;7.610;2023-12-20T15:23:21;6.03;;;1.67;;